createdAt,value
2019-02-06T00:00:40.724Z,99.90
2019-02-06T00:03:07.625Z,99.90
2019-02-06T00:05:33.873Z,99.90
2019-02-06T00:08:00.171Z,99.90
2019-02-06T00:10:26.733Z,99.90
2019-02-06T00:12:52.963Z,99.90
2019-02-06T00:15:19.351Z,99.90
2019-02-06T00:17:46.114Z,99.90
2019-02-06T00:20:12.269Z,99.90
2019-02-06T00:22:39.661Z,99.90
2019-02-06T00:25:06.315Z,99.90
2019-02-06T00:27:32.461Z,99.90
2019-02-06T00:29:58.618Z,99.90
2019-02-06T00:32:24.772Z,99.90
2019-02-06T00:34:50.928Z,99.90
2019-02-06T00:37:17.071Z,99.90
2019-02-06T00:39:43.219Z,99.90
2019-02-06T00:42:09.426Z,99.90
2019-02-06T00:44:36.821Z,99.90
2019-02-06T00:47:02.968Z,99.90
2019-02-06T00:49:29.122Z,99.90
2019-02-06T00:51:55.500Z,99.90
2019-02-06T00:54:21.655Z,99.90
2019-02-06T00:56:48.063Z,99.90
2019-02-06T00:59:14.332Z,99.90
2019-02-06T01:01:40.476Z,99.90
2019-02-06T01:04:06.939Z,99.90
2019-02-06T01:06:33.378Z,99.90
2019-02-06T01:08:59.543Z,99.90
2019-02-06T01:11:25.921Z,99.90
2019-02-06T01:13:52.072Z,99.90
2019-02-06T01:16:18.226Z,99.90
2019-02-06T01:18:44.588Z,99.90
2019-02-06T01:21:10.741Z,99.90
2019-02-06T01:23:37.007Z,99.90
2019-02-06T01:26:03.358Z,99.90
2019-02-06T01:28:29.850Z,99.90
2019-02-06T01:30:57.903Z,99.90
2019-02-06T01:33:24.071Z,99.90
2019-02-06T01:35:50.455Z,99.90
2019-02-06T01:38:16.669Z,99.90
2019-02-06T01:40:42.821Z,99.90
2019-02-06T01:43:08.966Z,99.90
2019-02-06T01:45:35.528Z,99.90
2019-02-06T01:48:01.772Z,99.90
2019-02-06T01:50:27.927Z,99.90
2019-02-06T01:52:54.299Z,99.90
2019-02-06T01:55:20.510Z,99.90
2019-02-06T01:57:46.646Z,99.90
2019-02-06T02:00:18.531Z,99.90
2019-02-06T02:02:44.682Z,99.90
2019-02-06T02:05:12.543Z,99.90
2019-02-06T02:07:38.890Z,99.90
2019-02-06T02:10:08.355Z,99.90
2019-02-06T02:12:34.826Z,99.90
2019-02-06T02:15:00.998Z,99.90
2019-02-06T02:17:27.155Z,99.90
2019-02-06T02:19:53.319Z,99.90
2019-02-06T02:22:19.491Z,99.90
2019-02-06T02:24:46.034Z,99.90
2019-02-06T02:27:12.302Z,99.90
2019-02-06T02:29:38.454Z,99.90
2019-02-06T02:32:04.621Z,99.90
2019-02-06T02:34:30.780Z,99.90
2019-02-06T02:36:56.973Z,99.90
2019-02-06T02:39:23.116Z,99.90
2019-02-06T02:41:49.585Z,99.90
2019-02-06T02:44:16.027Z,99.90
2019-02-06T02:46:42.188Z,99.90
2019-02-06T02:49:08.563Z,99.90
2019-02-06T02:51:34.703Z,99.90
2019-02-06T02:54:00.844Z,99.90
2019-02-06T02:56:27.271Z,99.90
2019-02-06T02:58:53.415Z,99.90
2019-02-06T03:01:27.313Z,99.90
2019-02-06T03:04:01.037Z,99.90
2019-02-06T03:06:28.648Z,99.90
2019-02-06T03:08:54.923Z,99.90
2019-02-06T03:11:21.209Z,99.90
2019-02-06T03:13:47.364Z,99.90
2019-02-06T03:16:13.509Z,99.90
2019-02-06T03:18:39.694Z,99.90
2019-02-06T03:21:06.125Z,99.90
2019-02-06T03:23:32.301Z,99.90
2019-02-06T03:25:58.423Z,99.90
2019-02-06T03:28:24.606Z,99.90
2019-02-06T03:30:50.836Z,99.90
2019-02-06T03:33:16.995Z,99.90
2019-02-06T03:35:43.239Z,99.90
2019-02-06T03:38:09.491Z,99.90
2019-02-06T03:40:36.133Z,99.90
2019-02-06T03:43:02.581Z,99.90
2019-02-06T03:45:28.725Z,99.90
2019-02-06T03:47:54.967Z,99.90
2019-02-06T03:50:21.114Z,99.90
2019-02-06T03:52:47.355Z,99.90
2019-02-06T03:55:13.845Z,99.90
2019-02-06T03:57:40.038Z,99.90
2019-02-06T04:00:15.603Z,99.90
2019-02-06T04:02:41.871Z,99.90
2019-02-06T04:05:09.248Z,99.90
2019-02-06T04:07:35.425Z,99.90
2019-02-06T04:10:02.076Z,99.90
2019-02-06T04:12:28.462Z,99.90
2019-02-06T04:14:54.611Z,99.90
2019-02-06T04:17:20.945Z,99.90
2019-02-06T04:19:47.506Z,99.90
2019-02-06T04:22:13.673Z,99.90
2019-02-06T04:24:39.994Z,99.90
2019-02-06T04:27:06.425Z,99.90
2019-02-06T04:29:32.595Z,99.90
2019-02-06T04:31:58.881Z,99.90
2019-02-06T04:34:25.013Z,99.90
2019-02-06T04:36:51.197Z,99.90
2019-02-06T04:39:17.730Z,99.90
2019-02-06T04:41:43.905Z,99.90
2019-02-06T04:44:10.086Z,99.90
2019-02-06T04:46:36.213Z,99.90
2019-02-06T04:49:02.473Z,99.90
2019-02-06T04:51:28.647Z,99.90
2019-02-06T04:53:54.884Z,99.90
2019-02-06T04:56:21.070Z,99.90
2019-02-06T04:58:47.222Z,99.90
2019-02-06T05:01:13.759Z,99.90
2019-02-06T05:03:40.145Z,99.90
2019-02-06T05:06:06.292Z,99.90
2019-02-06T05:08:32.439Z,99.90
2019-02-06T05:10:58.591Z,99.90
2019-02-06T05:13:24.764Z,99.90
2019-02-06T05:15:50.905Z,99.90
2019-02-06T05:18:17.045Z,99.90
2019-02-06T05:20:43.236Z,99.90
2019-02-06T05:23:09.402Z,99.90
2019-02-06T05:25:35.751Z,99.90
2019-02-06T05:28:01.900Z,99.90
2019-02-06T05:30:28.042Z,99.90
2019-02-06T05:32:54.175Z,99.90
2019-02-06T05:35:20.598Z,99.90
2019-02-06T05:37:46.746Z,99.90
2019-02-06T05:40:13.124Z,99.90
2019-02-06T05:42:39.701Z,99.90
2019-02-06T05:45:08.969Z,99.90
2019-02-06T05:47:35.101Z,99.90
2019-02-06T05:50:01.242Z,99.90
2019-02-06T05:52:27.391Z,99.90
2019-02-06T05:54:53.527Z,99.90
2019-02-06T05:57:19.696Z,99.90
2019-02-06T05:59:45.878Z,99.90
2019-02-06T06:02:12.095Z,99.90
2019-02-06T06:04:38.623Z,99.90
2019-02-06T06:07:04.880Z,99.90
2019-02-06T06:09:31.008Z,99.90
2019-02-06T06:11:57.449Z,99.90
2019-02-06T06:14:23.812Z,99.90
2019-02-06T06:16:49.965Z,99.90
2019-02-06T06:19:16.116Z,99.90
2019-02-06T06:21:42.419Z,99.90
2019-02-06T06:24:09.119Z,99.90
2019-02-06T06:26:35.603Z,99.90
2019-02-06T06:29:01.742Z,99.90
2019-02-06T06:31:27.888Z,99.90
2019-02-06T06:33:54.253Z,99.90
2019-02-06T06:36:20.656Z,99.90
2019-02-06T06:38:46.895Z,99.90
2019-02-06T06:41:13.072Z,99.90
2019-02-06T06:43:39.212Z,99.90
2019-02-06T06:46:05.344Z,99.90
2019-02-06T06:48:31.499Z,99.90
2019-02-06T06:50:57.671Z,99.90
2019-02-06T06:53:23.855Z,99.90
2019-02-06T06:55:50.028Z,99.90
2019-02-06T06:58:16.226Z,99.90
2019-02-06T07:00:42.415Z,99.90
2019-02-06T07:03:09.051Z,99.90
2019-02-06T07:05:35.185Z,99.90
2019-02-06T07:08:09.135Z,99.90
2019-02-06T07:10:29.785Z,99.90
2019-02-06T07:12:55.973Z,99.90
2019-02-06T07:15:27.654Z,99.90
2019-02-06T07:17:53.899Z,99.90
2019-02-06T07:20:20.036Z,99.90
2019-02-06T07:22:46.298Z,99.90
2019-02-06T07:25:18.368Z,99.90
2019-02-06T07:27:44.639Z,99.90
2019-02-06T07:30:22.394Z,99.90
2019-02-06T07:32:49.034Z,99.90
2019-02-06T07:35:15.162Z,99.90
2019-02-06T07:37:41.366Z,99.90
2019-02-06T07:40:09.804Z,99.90
2019-02-06T07:42:36.279Z,99.90
2019-02-06T07:45:05.223Z,99.90
2019-02-06T07:47:31.402Z,99.90
2019-02-06T07:49:57.536Z,99.90
2019-02-06T07:52:23.727Z,99.90
2019-02-06T07:54:49.882Z,99.90
2019-02-06T07:57:16.034Z,99.90
2019-02-06T07:59:42.262Z,99.90
2019-02-06T08:02:08.887Z,99.90
2019-02-06T08:04:35.259Z,99.90
2019-02-06T08:07:01.402Z,99.90
2019-02-06T08:09:27.642Z,99.90
2019-02-06T08:11:53.799Z,99.90
2019-02-06T08:14:21.084Z,99.90
2019-02-06T08:16:47.202Z,99.90
2019-02-06T08:19:13.358Z,99.90
2019-02-06T08:21:39.955Z,99.90
2019-02-06T08:24:06.222Z,99.90
2019-02-06T08:26:32.494Z,99.90
2019-02-06T08:28:58.640Z,99.90
2019-02-06T08:31:24.801Z,99.90
2019-02-06T08:33:50.999Z,99.90
2019-02-06T08:36:17.387Z,99.90
2019-02-06T08:38:47.970Z,99.90
2019-02-06T08:41:11.925Z,99.90
2019-02-06T08:43:38.074Z,99.90
2019-02-06T08:46:04.207Z,99.90
2019-02-06T08:48:30.423Z,99.90
2019-02-06T08:50:56.578Z,99.90
2019-02-06T08:53:22.785Z,99.90
2019-02-06T08:55:48.923Z,99.90
2019-02-06T08:58:15.335Z,99.90
2019-02-06T09:00:41.494Z,99.90
2019-02-06T09:03:08.867Z,99.90
2019-02-06T09:05:35.493Z,99.90
2019-02-06T09:08:01.662Z,99.90
2019-02-06T09:10:29.216Z,99.90
2019-02-06T09:12:56.099Z,99.90
2019-02-06T09:15:22.697Z,99.90
2019-02-06T09:17:49.345Z,99.90
2019-02-06T09:20:18.113Z,99.90
2019-02-06T09:22:44.566Z,99.90
2019-02-06T09:25:16.336Z,99.90
2019-02-06T09:27:42.869Z,99.90
2019-02-06T09:30:12.613Z,99.90
2019-02-06T09:32:39.139Z,99.90
2019-02-06T09:35:06.318Z,99.90
2019-02-06T09:37:32.508Z,99.90
2019-02-06T09:39:59.271Z,99.90
2019-02-06T09:42:25.608Z,99.90
2019-02-06T09:44:52.219Z,99.90
2019-02-06T09:47:18.649Z,99.90
2019-02-06T09:49:45.042Z,99.90
2019-02-06T09:52:11.211Z,99.90
2019-02-06T09:54:37.716Z,99.90
2019-02-06T09:57:04.134Z,99.90
2019-02-06T09:59:30.617Z,99.90
2019-02-06T10:01:57.009Z,99.90
2019-02-06T10:04:24.300Z,99.90
2019-02-06T10:06:50.739Z,99.90
2019-02-06T10:09:22.874Z,99.90
2019-02-06T10:11:45.270Z,99.90
2019-02-06T10:14:11.437Z,99.90
2019-02-06T10:16:37.753Z,99.90
2019-02-06T10:19:03.970Z,99.90
2019-02-06T10:21:30.135Z,99.90
2019-02-06T10:23:56.281Z,99.90
2019-02-06T10:26:22.439Z,99.90
2019-02-06T10:28:48.583Z,99.90
2019-02-06T10:31:14.739Z,99.90
2019-02-06T10:33:40.884Z,99.90
2019-02-06T10:36:07.636Z,99.90
2019-02-06T10:38:34.443Z,99.90
2019-02-06T10:41:04.501Z,99.90
2019-02-06T10:43:32.651Z,99.90
2019-02-06T10:45:58.139Z,99.90
2019-02-06T10:48:25.219Z,99.90
2019-02-06T10:50:51.935Z,99.90
2019-02-06T10:53:18.534Z,99.90
2019-02-06T10:55:45.504Z,99.90
2019-02-06T10:58:12.094Z,99.90
2019-02-06T11:00:43.001Z,99.90
2019-02-06T11:03:09.708Z,99.90
2019-02-06T11:05:36.128Z,99.90
2019-02-06T11:08:03.419Z,99.90
2019-02-06T11:10:30.421Z,99.90
2019-02-06T11:12:56.574Z,99.90
2019-02-06T11:17:49.555Z,99.90
2019-02-06T11:20:18.667Z,99.90
2019-02-06T11:22:45.253Z,99.90
2019-02-06T11:25:13.805Z,99.90
2019-02-06T11:27:40.350Z,99.90
2019-02-06T11:30:16.163Z,99.90
2019-02-06T11:32:42.538Z,99.90
2019-02-06T11:35:09.864Z,99.90
2019-02-06T11:37:36.398Z,99.90
2019-02-06T11:40:06.355Z,99.90
2019-02-06T11:42:32.867Z,99.90
2019-02-06T11:44:59.297Z,99.90
2019-02-06T11:47:25.463Z,99.90
2019-02-06T11:49:53.522Z,99.90
2019-02-06T11:52:20.084Z,99.90
2019-02-06T11:54:46.521Z,99.90
2019-02-06T11:57:12.776Z,99.90
2019-02-06T11:59:39.244Z,99.90
2019-02-06T12:02:05.667Z,99.90
2019-02-06T12:04:32.008Z,99.90
2019-02-06T12:06:58.207Z,99.90
2019-02-06T12:09:24.453Z,99.90
2019-02-06T12:11:50.707Z,99.90
2019-02-06T12:14:16.874Z,99.90
2019-02-06T12:16:43.023Z,99.90
2019-02-06T12:19:09.311Z,99.90
2019-02-06T12:21:35.993Z,99.90
2019-02-06T12:24:02.350Z,99.90
2019-02-06T12:26:28.525Z,99.90
2019-02-06T12:28:54.683Z,99.90
2019-02-06T12:31:20.820Z,99.90
2019-02-06T12:33:47.720Z,99.90
2019-02-06T12:36:15.865Z,99.90
2019-02-06T12:38:52.757Z,99.90
2019-02-06T12:41:10.115Z,99.90
2019-02-06T12:43:36.271Z,99.90
2019-02-06T12:46:03.468Z,99.90
2019-02-06T12:48:29.719Z,99.90
2019-02-06T12:50:55.980Z,99.90
2019-02-06T12:53:22.112Z,99.90
2019-02-06T12:55:48.267Z,99.90
2019-02-06T12:58:14.806Z,99.90
2019-02-06T13:00:44.096Z,99.90
2019-02-06T13:03:11.579Z,99.90
2019-02-06T13:05:37.842Z,99.90
2019-02-06T13:08:04.725Z,99.90
2019-02-06T13:10:34.279Z,99.90
2019-02-06T13:12:59.232Z,99.90
2019-02-06T13:15:25.545Z,99.90
2019-02-06T13:17:51.986Z,99.90
2019-02-06T13:20:26.455Z,99.90
2019-02-06T13:22:53.125Z,99.90
2019-02-06T13:25:19.380Z,99.90
2019-02-06T13:27:45.545Z,99.90
2019-02-06T13:30:21.783Z,99.90
2019-02-06T13:32:48.341Z,99.90
2019-02-06T13:35:16.196Z,99.90
2019-02-06T13:37:42.330Z,99.90
2019-02-06T13:40:12.224Z,99.90
2019-02-06T13:42:38.427Z,99.90
2019-02-06T13:45:08.609Z,99.90
2019-02-06T13:47:34.766Z,99.90
2019-02-06T13:50:01.365Z,99.90
2019-02-06T13:52:27.527Z,99.90
2019-02-06T13:54:53.705Z,99.90
2019-02-06T13:57:19.839Z,99.90
2019-02-06T13:59:46.231Z,99.90
2019-02-06T14:02:12.380Z,99.90
2019-02-06T14:04:38.561Z,99.90
2019-02-06T14:07:04.703Z,99.90
2019-02-06T14:09:30.859Z,99.90
2019-02-06T14:11:57.051Z,99.90
2019-02-06T14:14:23.191Z,99.90
2019-02-06T14:16:49.824Z,99.90
2019-02-06T14:19:15.967Z,99.90
2019-02-06T14:21:42.346Z,40.30
2019-02-06T14:24:15.305Z,40.60
2019-02-06T14:26:45.359Z,44.10
2019-02-06T14:29:30.740Z,49.70
2019-02-06T14:32:09.785Z,53.00
2019-02-06T14:34:42.751Z,55.00
2019-02-06T14:37:29.254Z,55.70
2019-02-06T14:40:26.734Z,56.90
2019-02-06T14:43:11.914Z,56.50
2019-02-06T14:45:50.544Z,56.60
2019-02-06T14:48:26.608Z,56.70
2019-02-06T14:51:02.764Z,57.10
2019-02-06T14:53:44.523Z,57.30
2019-02-06T14:56:23.476Z,57.30
2019-02-06T14:59:16.592Z,57.80
2019-02-06T15:01:52.313Z,57.20
2019-02-06T15:04:37.690Z,57.20
2019-02-06T15:07:07.655Z,57.00
2019-02-06T15:09:49.729Z,57.20
2019-02-06T15:12:34.452Z,57.40
2019-02-06T15:15:13.529Z,57.50
2019-02-06T15:18:00.411Z,57.60
2019-02-06T15:20:45.333Z,57.50
2019-02-06T15:23:32.474Z,57.30
2019-02-06T15:26:19.278Z,56.80
2019-02-06T15:29:17.161Z,56.60
2019-02-06T15:32:14.119Z,57.00
2019-02-06T15:34:59.089Z,56.90
2019-02-06T15:37:47.188Z,56.70
2019-02-06T15:40:35.653Z,56.30
2019-02-06T15:43:21.016Z,56.50
2019-02-06T15:46:19.583Z,56.40
2019-02-06T15:49:07.514Z,56.50
2019-02-06T15:51:41.044Z,56.40
2019-02-06T15:54:28.175Z,56.40
2019-02-06T15:57:21.515Z,56.60
2019-02-06T16:00:24.856Z,56.50
2019-02-06T16:02:55.086Z,56.90
2019-02-06T16:05:33.199Z,57.00
2019-02-06T16:08:14.974Z,57.10
2019-02-06T16:11:00.099Z,57.30
2019-02-06T16:13:41.451Z,57.60
2019-02-06T16:16:33.107Z,57.50
2019-02-06T16:19:07.755Z,57.50
2019-02-06T16:21:55.940Z,58.10
2019-02-06T16:24:26.139Z,58.20
2019-02-06T16:27:07.926Z,58.40
2019-02-06T16:29:59.879Z,58.60
2019-02-06T16:32:33.848Z,58.70
2019-02-06T16:35:15.997Z,59.00
2019-02-06T16:38:03.697Z,59.20
2019-02-06T16:40:56.340Z,59.30
2019-02-06T16:43:47.962Z,59.40
2019-02-06T16:46:42.122Z,59.70
2019-02-06T16:49:34.993Z,59.90
2019-02-06T16:52:07.729Z,60.00
2019-02-06T16:54:54.689Z,59.90
2019-02-06T16:57:42.418Z,59.80
2019-02-06T17:00:34.304Z,60.00
2019-02-06T17:03:33.948Z,60.10
2019-02-06T17:06:04.122Z,60.40
2019-02-06T17:08:36.871Z,60.50
2019-02-06T17:11:09.562Z,60.50
2019-02-06T17:13:39.508Z,60.60
2019-02-06T17:16:30.513Z,60.30
2019-02-06T17:19:09.417Z,60.30
2019-02-06T17:21:56.132Z,60.30
2019-02-06T17:24:46.750Z,60.70
2019-02-06T17:27:16.684Z,61.00
2019-02-06T17:29:49.783Z,61.50
2019-02-06T17:32:22.556Z,62.00
2019-02-06T17:35:10.482Z,62.60
2019-02-06T17:37:49.253Z,63.00
2019-02-06T17:40:33.855Z,63.40
2019-02-06T17:43:18.201Z,64.00
2019-02-06T17:45:51.177Z,64.30
2019-02-06T17:48:21.396Z,64.60
2019-02-06T17:50:57.369Z,65.20
2019-02-06T17:53:33.186Z,65.70
2019-02-06T17:55:59.693Z,66.20
2019-02-06T17:58:27.746Z,66.50
2019-02-06T18:00:58.666Z,66.60
2019-02-06T18:03:26.084Z,66.80
2019-02-06T18:05:52.309Z,67.00
2019-02-06T18:08:18.675Z,67.10
2019-02-06T18:10:44.970Z,67.10
2019-02-06T18:13:11.206Z,67.30
2019-02-06T18:15:37.358Z,67.40
2019-02-06T18:18:04.247Z,67.60
2019-02-06T18:20:30.452Z,67.50
2019-02-06T18:22:57.024Z,67.50
2019-02-06T18:25:23.303Z,67.80
2019-02-06T18:27:49.536Z,68.20
2019-02-06T18:30:23.072Z,68.80
2019-02-06T18:32:49.422Z,69.60
2019-02-06T18:35:15.863Z,71.30
2019-02-06T18:37:44.306Z,71.50
2019-02-06T18:40:12.478Z,72.40
2019-02-06T18:42:38.865Z,72.50
2019-02-06T18:45:14.548Z,73.40
2019-02-06T18:47:41.082Z,73.40
2019-02-06T18:50:19.634Z,72.50
2019-02-06T18:52:45.865Z,72.80
2019-02-06T18:55:12.414Z,72.40
2019-02-06T18:57:38.861Z,72.50
2019-02-06T19:00:08.891Z,72.80
2019-02-06T19:02:35.629Z,72.40
2019-02-06T19:05:05.016Z,72.50
2019-02-06T19:07:31.274Z,72.70
2019-02-06T19:09:57.463Z,72.70
2019-02-06T19:12:23.707Z,73.00
2019-02-06T19:14:49.857Z,73.50
2019-02-06T19:17:16.003Z,73.50
2019-02-06T19:19:44.956Z,73.40
2019-02-06T19:22:10.552Z,73.70
2019-02-06T19:24:36.686Z,73.70
2019-02-06T19:27:03.159Z,73.80
2019-02-06T19:29:29.345Z,74.20
2019-02-06T19:31:56.075Z,74.30
2019-02-06T19:34:22.212Z,74.60
2019-02-06T19:36:48.387Z,74.80
2019-02-06T19:39:14.523Z,74.80
2019-02-06T19:41:41.061Z,75.00
2019-02-06T19:44:07.453Z,75.20
2019-02-06T19:46:33.696Z,75.40
2019-02-06T19:48:59.882Z,75.80
2019-02-06T19:51:26.692Z,76.50
2019-02-06T19:53:53.187Z,76.50
2019-02-06T19:56:19.474Z,76.40
2019-02-06T19:58:46.869Z,76.30
2019-02-06T20:01:13.137Z,75.90
2019-02-06T20:03:39.317Z,75.70
2019-02-06T20:06:06.010Z,75.70
2019-02-06T20:08:33.431Z,75.70
2019-02-06T20:10:59.706Z,75.90
2019-02-06T20:13:26.319Z,75.60
2019-02-06T20:15:52.898Z,76.40
2019-02-06T20:18:19.115Z,75.60
2019-02-06T20:20:45.400Z,75.80
2019-02-06T20:23:11.894Z,76.20
2019-02-06T20:25:38.180Z,76.60
2019-02-06T20:28:04.854Z,76.60
2019-02-06T20:30:31.602Z,76.70
2019-02-06T20:32:58.111Z,76.70
2019-02-06T20:35:24.657Z,77.10
2019-02-06T20:38:04.912Z,77.10
2019-02-06T20:40:34.164Z,77.50
2019-02-06T20:43:00.550Z,78.40
2019-02-06T20:45:26.931Z,79.30
2019-02-06T20:47:53.084Z,80.10
2019-02-06T20:50:26.955Z,80.70
2019-02-06T20:52:53.091Z,81.20
2019-02-06T20:55:19.844Z,82.30
2019-02-06T20:57:46.685Z,82.30
2019-02-06T21:00:30.839Z,82.30
2019-02-06T21:02:57.351Z,82.60
2019-02-06T21:05:24.695Z,83.00
2019-02-06T21:07:50.827Z,83.70
2019-02-06T21:10:25.660Z,82.80
2019-02-06T21:12:51.903Z,82.80
2019-02-06T21:15:19.345Z,82.80
2019-02-06T21:17:45.720Z,82.80
2019-02-06T21:20:14.965Z,83.00
2019-02-06T21:22:41.431Z,83.00
2019-02-06T21:25:10.124Z,83.50
2019-02-06T21:27:36.555Z,83.30
2019-02-06T21:30:06.808Z,83.70
2019-02-06T21:32:33.226Z,83.70
2019-02-06T21:34:59.414Z,83.50
2019-02-06T21:37:27.123Z,83.40
2019-02-06T21:39:53.455Z,83.50
2019-02-06T21:42:19.602Z,83.80
2019-02-06T21:44:45.743Z,84.30
2019-02-06T21:47:12.229Z,84.70
2019-02-06T21:49:38.472Z,84.90
2019-02-06T21:52:04.621Z,84.80
2019-02-06T21:54:30.762Z,84.70
2019-02-06T21:56:56.907Z,84.60
2019-02-06T21:59:24.052Z,84.60
2019-02-06T22:01:50.755Z,84.60
2019-02-06T22:04:16.926Z,84.90
2019-02-06T22:06:43.101Z,84.80
2019-02-06T22:09:09.746Z,84.90
2019-02-06T22:11:36.130Z,84.90
2019-02-06T22:14:02.466Z,84.70
2019-02-06T22:16:28.700Z,84.50
2019-02-06T22:18:55.008Z,84.60
2019-02-06T22:21:21.528Z,84.90
2019-02-06T22:23:48.020Z,85.10
2019-02-06T22:26:14.229Z,85.10
2019-02-06T22:28:40.350Z,84.90
2019-02-06T22:31:06.524Z,85.20
2019-02-06T22:33:32.811Z,85.20
2019-02-06T22:35:59.106Z,85.40
2019-02-06T22:38:25.263Z,85.60
2019-02-06T22:40:51.454Z,85.90
2019-02-06T22:43:17.712Z,85.90
2019-02-06T22:45:44.428Z,86.20
2019-02-06T22:48:10.575Z,86.20
2019-02-06T22:50:36.733Z,86.40
2019-02-06T22:53:03.110Z,86.30
2019-02-06T22:55:29.264Z,86.60
2019-02-06T22:57:55.423Z,86.90
2019-02-06T23:00:42.172Z,87.10
2019-02-06T23:03:09.024Z,87.60
2019-02-06T23:05:35.174Z,87.50
2019-02-06T23:08:01.705Z,88.00
2019-02-06T23:10:28.245Z,87.80
2019-02-06T23:12:54.691Z,88.30
2019-02-06T23:15:20.833Z,88.50
2019-02-06T23:17:47.032Z,88.50
2019-02-06T23:20:13.721Z,88.80
2019-02-06T23:22:39.974Z,88.60
2019-02-06T23:25:07.353Z,88.90
2019-02-06T23:27:33.584Z,88.80
2019-02-06T23:29:59.863Z,88.90
2019-02-06T23:32:25.995Z,88.70
2019-02-06T23:34:52.139Z,88.90
2019-02-06T23:37:18.784Z,89.20
2019-02-06T23:39:44.932Z,89.70
2019-02-06T23:42:11.062Z,89.30
2019-02-06T23:44:37.587Z,89.10
2019-02-06T23:47:03.716Z,88.90
2019-02-06T23:49:29.953Z,89.00
2019-02-06T23:51:56.121Z,89.40
2019-02-06T23:54:22.258Z,89.50
2019-02-06T23:56:48.937Z,89.70
2019-02-06T23:59:15.208Z,89.50
